createdAt,value
2019-05-23T00:02:52.876Z,4.70
2019-05-23T00:05:44.754Z,4.17
2019-05-23T00:08:16.103Z,4.03
2019-05-23T00:10:53.823Z,3.90
2019-05-23T00:13:53.664Z,4.03
2019-05-23T00:16:24.618Z,4.23
2019-05-23T00:18:54.124Z,4.37
2019-05-23T00:21:24.004Z,4.10
2019-05-23T00:23:55.040Z,3.53
2019-05-23T00:26:26.232Z,3.77
2019-05-23T00:29:09.644Z,3.50
2019-05-23T00:31:32.600Z,3.30
2019-05-23T00:34:02.055Z,3.60
2019-05-23T00:36:32.348Z,3.10
2019-05-23T00:39:01.956Z,2.70
2019-05-23T00:41:32.911Z,2.90
2019-05-23T00:44:02.257Z,3.50
2019-05-23T00:46:31.953Z,3.20
2019-05-23T00:49:03.132Z,2.53
2019-05-23T00:51:34.213Z,2.73
2019-05-23T00:54:04.365Z,2.90
2019-05-23T00:56:35.924Z,2.27
2019-05-23T00:59:06.415Z,2.73
2019-05-23T01:01:37.907Z,2.53
2019-05-23T01:04:08.142Z,2.50
2019-05-23T01:06:38.531Z,2.10
2019-05-23T01:09:09.323Z,2.53
2019-05-23T01:11:39.049Z,2.00
2019-05-23T01:14:09.452Z,2.37
2019-05-23T01:16:39.238Z,2.07
2019-05-23T01:19:09.432Z,2.20
2019-05-23T01:21:59.508Z,1.80
2019-05-23T01:24:32.600Z,2.30
2019-05-23T01:27:03.108Z,2.00
2019-05-23T01:29:39.566Z,2.47
2019-05-23T01:32:21.017Z,2.03
2019-05-23T01:34:51.086Z,1.97
2019-05-23T01:37:21.448Z,2.03
2019-05-23T01:39:51.400Z,2.13
2019-05-23T01:42:22.360Z,2.40
2019-05-23T01:44:52.276Z,1.90
2019-05-23T01:47:23.947Z,1.93
2019-05-23T01:49:54.866Z,1.93
2019-05-23T01:52:24.533Z,1.60
2019-05-23T01:54:54.164Z,1.93
2019-05-23T01:57:25.140Z,2.10
2019-05-23T02:00:08.752Z,2.30
2019-05-23T02:02:27.580Z,2.27
2019-05-23T02:04:57.346Z,1.97
2019-05-23T02:07:29.392Z,1.97
2019-05-23T02:09:58.979Z,2.40
2019-05-23T02:12:28.251Z,2.30
2019-05-23T02:14:57.608Z,2.40
2019-05-23T02:17:27.324Z,2.30
2019-05-23T02:19:56.759Z,2.47
2019-05-23T02:22:26.799Z,2.30
2019-05-23T02:24:56.802Z,2.30
2019-05-23T02:27:26.815Z,2.17
2019-05-23T02:29:56.794Z,2.23
2019-05-23T02:32:26.319Z,2.20
2019-05-23T02:34:55.806Z,2.50
2019-05-23T02:37:43.431Z,2.10
2019-05-23T02:40:23.228Z,2.10
2019-05-23T02:42:57.778Z,2.33
2019-05-23T02:45:37.163Z,2.17
2019-05-23T02:48:11.758Z,1.80
2019-05-23T02:50:46.661Z,2.00
2019-05-23T02:53:18.189Z,2.00
2019-05-23T02:55:50.079Z,1.60
2019-05-23T02:58:25.979Z,2.10
2019-05-23T03:01:41.787Z,2.00
2019-05-23T03:04:15.607Z,2.27
2019-05-23T03:06:46.024Z,1.73
2019-05-23T03:09:20.174Z,2.10
2019-05-23T03:11:50.098Z,1.97
2019-05-23T03:14:19.887Z,1.80
2019-05-23T03:16:52.637Z,1.77
2019-05-23T03:19:45.222Z,1.80
2019-05-23T03:22:34.211Z,1.70
2019-05-23T03:25:05.828Z,1.70
2019-05-23T03:27:40.981Z,1.70
2019-05-23T03:30:14.439Z,2.00
2019-05-23T03:32:46.139Z,1.33
2019-05-23T03:35:35.005Z,1.67
2019-05-23T03:38:06.406Z,1.37
2019-05-23T03:40:36.384Z,1.70
2019-05-23T03:43:06.398Z,1.67
2019-05-23T03:45:40.378Z,1.20
2019-05-23T03:48:11.621Z,1.80
2019-05-23T03:50:42.012Z,1.60
2019-05-23T03:53:12.229Z,1.20
2019-05-23T03:55:42.663Z,1.80
2019-05-23T03:58:13.488Z,1.97
2019-05-23T04:00:49.735Z,1.60
2019-05-23T04:03:19.236Z,1.40
2019-05-23T04:05:49.244Z,1.50
2019-05-23T04:08:19.450Z,1.50
2019-05-23T04:10:51.807Z,1.53
2019-05-23T04:13:20.453Z,1.63
2019-05-23T04:15:50.524Z,1.40
2019-05-23T04:18:19.916Z,1.50
2019-05-23T04:20:49.483Z,1.40
2019-05-23T04:23:19.714Z,1.43
2019-05-23T04:25:49.540Z,1.40
2019-05-23T04:28:19.431Z,1.40
2019-05-23T04:30:49.259Z,1.57
2019-05-23T04:33:18.563Z,1.50
2019-05-23T04:35:48.388Z,1.30
2019-05-23T04:38:18.194Z,1.60
2019-05-23T04:40:47.732Z,1.70
2019-05-23T04:43:17.238Z,1.47
2019-05-23T04:45:48.030Z,1.30
2019-05-23T04:48:17.599Z,1.50
2019-05-23T04:50:47.894Z,1.53
2019-05-23T04:53:17.622Z,1.27
2019-05-23T04:55:47.455Z,1.40
2019-05-23T04:58:17.139Z,1.33
2019-05-23T05:00:46.695Z,1.03
2019-05-23T05:03:18.160Z,1.37
2019-05-23T05:05:48.151Z,1.17
2019-05-23T05:08:17.713Z,1.70
2019-05-23T05:10:47.394Z,1.60
2019-05-23T05:13:17.168Z,0.90
2019-05-23T05:15:46.617Z,1.10
2019-05-23T05:18:16.401Z,1.00
2019-05-23T05:20:46.042Z,0.93
2019-05-23T05:23:15.764Z,0.73
2019-05-23T05:25:45.091Z,0.80
2019-05-23T05:28:14.546Z,1.00
2019-05-23T05:30:44.436Z,0.80
2019-05-23T05:33:13.677Z,0.70
2019-05-23T05:35:43.723Z,0.67
2019-05-23T05:38:13.210Z,0.67
2019-05-23T05:40:42.656Z,0.83
2019-05-23T05:43:12.444Z,0.73
2019-05-23T05:45:42.473Z,1.30
2019-05-23T05:48:11.858Z,0.70
2019-05-23T05:50:41.739Z,0.70
2019-05-23T05:53:12.566Z,1.00
2019-05-23T05:55:42.109Z,0.90
2019-05-23T05:58:11.440Z,1.10
2019-05-23T06:00:54.377Z,1.47
2019-05-23T06:03:23.656Z,1.10
2019-05-23T06:06:09.323Z,0.80
2019-05-23T06:08:39.878Z,0.80
2019-05-23T06:11:09.564Z,1.00
2019-05-23T06:13:39.187Z,0.90
2019-05-23T06:16:08.603Z,0.90
2019-05-23T06:18:38.048Z,1.13
2019-05-23T06:21:08.256Z,0.90
2019-05-23T06:23:37.999Z,0.60
2019-05-23T06:26:07.333Z,0.70
2019-05-23T06:28:38.039Z,0.97
2019-05-23T06:31:08.366Z,0.90
2019-05-23T06:33:38.113Z,1.00
2019-05-23T06:36:07.737Z,0.90
2019-05-23T06:38:37.096Z,0.93
2019-05-23T06:41:07.949Z,0.80
2019-05-23T06:43:39.269Z,0.90
2019-05-23T06:46:08.771Z,0.70
2019-05-23T06:48:38.034Z,0.60
2019-05-23T06:51:07.759Z,0.97
2019-05-23T06:53:37.129Z,0.73
2019-05-23T06:56:08.294Z,0.70
2019-05-23T06:58:38.167Z,0.70
2019-05-23T07:01:07.525Z,0.60
2019-05-23T07:03:42.654Z,0.50
2019-05-23T07:06:09.323Z,0.65
2019-05-23T07:08:38.812Z,0.63
2019-05-23T07:11:08.221Z,0.60
2019-05-23T07:13:38.292Z,0.60
2019-05-23T07:16:07.578Z,0.93
2019-05-23T07:18:36.821Z,0.80
2019-05-23T07:21:06.953Z,0.87
2019-05-23T07:23:36.817Z,0.77
2019-05-23T07:26:06.147Z,0.70
2019-05-23T07:28:36.105Z,0.70
2019-05-23T07:31:06.330Z,0.60
2019-05-23T07:33:35.780Z,0.75
2019-05-23T07:36:05.556Z,0.60
2019-05-23T07:38:34.859Z,0.60
2019-05-23T07:41:04.393Z,0.85
2019-05-23T07:43:34.053Z,0.80
2019-05-23T07:46:03.742Z,0.70
2019-05-23T07:48:33.346Z,0.62
2019-05-23T07:51:03.140Z,0.70
2019-05-23T07:53:50.387Z,0.80
2019-05-23T07:56:22.974Z,0.60
2019-05-23T07:58:52.250Z,0.88
2019-05-23T08:01:24.309Z,0.65
2019-05-23T08:03:54.400Z,0.85
2019-05-23T08:06:24.120Z,0.70
2019-05-23T08:08:53.677Z,0.70
2019-05-23T08:11:23.383Z,0.98
2019-05-23T08:13:53.496Z,0.70
2019-05-23T08:16:23.712Z,0.60
2019-05-23T08:18:53.410Z,0.60
2019-05-23T08:21:22.687Z,0.90
2019-05-23T08:23:52.431Z,0.68
2019-05-23T08:26:22.810Z,0.80
2019-05-23T08:29:21.727Z,0.80
2019-05-23T08:31:24.290Z,0.70
2019-05-23T08:33:53.995Z,0.70
2019-05-23T08:36:24.053Z,0.90
2019-05-23T08:38:54.182Z,0.70
2019-05-23T08:41:24.473Z,0.78
2019-05-23T08:43:54.218Z,0.90
2019-05-23T08:46:24.363Z,0.70
2019-05-23T08:48:54.756Z,0.90
2019-05-23T08:51:24.192Z,0.80
2019-05-23T08:53:56.305Z,0.90
2019-05-23T08:56:26.052Z,1.00
2019-05-23T08:58:55.404Z,1.10
2019-05-23T09:01:25.225Z,1.17
2019-05-23T09:03:54.975Z,1.10
2019-05-23T09:06:24.357Z,0.90
2019-05-23T09:08:55.081Z,1.30
2019-05-23T09:11:24.799Z,1.07
2019-05-23T09:13:54.310Z,1.10
2019-05-23T09:16:23.753Z,1.30
2019-05-23T09:18:53.573Z,1.13
2019-05-23T09:21:22.918Z,1.07
2019-05-23T09:23:52.188Z,1.40
2019-05-23T09:26:21.476Z,1.50
2019-05-23T09:28:50.984Z,1.57
2019-05-23T09:31:22.204Z,1.70
2019-05-23T09:33:51.778Z,1.45
2019-05-23T09:36:21.139Z,1.77
2019-05-23T09:38:50.871Z,1.50
2019-05-23T09:41:20.262Z,1.57
2019-05-23T09:43:49.580Z,1.45
2019-05-23T09:46:19.240Z,1.50
2019-05-23T09:48:48.784Z,1.70
2019-05-23T09:51:18.147Z,1.60
2019-05-23T09:53:47.961Z,1.53
2019-05-23T09:56:17.379Z,1.53
2019-05-23T09:58:46.613Z,1.50
2019-05-23T10:01:18.299Z,1.50
2019-05-23T10:03:48.307Z,1.33
2019-05-23T10:06:17.632Z,1.50
2019-05-23T10:08:47.123Z,1.70
2019-05-23T10:11:16.554Z,1.50
2019-05-23T10:13:45.847Z,1.47
2019-05-23T10:16:15.423Z,1.60
2019-05-23T10:18:45.261Z,1.67
2019-05-23T10:21:14.708Z,1.60
2019-05-23T10:23:44.121Z,1.50
2019-05-23T10:26:13.864Z,2.00
2019-05-23T10:28:43.221Z,2.17
2019-05-23T10:31:14.100Z,1.95
2019-05-23T10:33:43.424Z,1.65
2019-05-23T10:36:12.738Z,1.70
2019-05-23T10:38:42.574Z,1.73
2019-05-23T10:41:12.041Z,1.60
2019-05-23T10:43:41.393Z,1.83
2019-05-23T10:46:10.933Z,1.70
2019-05-23T10:48:41.021Z,1.70
2019-05-23T10:51:10.490Z,1.60
2019-05-23T10:53:40.372Z,1.70
2019-05-23T10:56:10.052Z,1.57
2019-05-23T10:58:39.886Z,1.60
2019-05-23T11:01:09.313Z,1.60
2019-05-23T11:03:38.900Z,1.90
2019-05-23T11:06:16.156Z,1.70
2019-05-23T11:08:39.745Z,1.67
2019-05-23T11:11:14.025Z,1.60
2019-05-23T11:13:41.124Z,1.75
2019-05-23T11:16:10.956Z,1.90
2019-05-23T11:18:40.650Z,1.73
2019-05-23T11:21:10.374Z,1.70
2019-05-23T11:23:44.332Z,2.00
2019-05-23T11:26:13.808Z,1.90
2019-05-23T11:28:43.127Z,1.60
2019-05-23T11:31:14.385Z,1.80
2019-05-23T11:33:43.810Z,1.70
2019-05-23T11:36:13.648Z,1.70
2019-05-23T11:38:43.444Z,1.57
2019-05-23T11:41:13.039Z,1.57
2019-05-23T11:43:42.994Z,1.50
2019-05-23T11:46:27.991Z,1.50
2019-05-23T11:48:57.560Z,1.50
2019-05-23T11:51:27.355Z,1.50
2019-05-23T11:54:07.550Z,1.57
2019-05-23T11:56:28.578Z,1.50
2019-05-23T11:59:01.136Z,1.60
2019-05-23T12:01:37.553Z,1.50
2019-05-23T12:04:18.313Z,1.40
2019-05-23T12:07:08.943Z,1.33
2019-05-23T12:09:38.350Z,1.30
2019-05-23T12:12:07.691Z,1.00
2019-05-23T12:14:37.973Z,1.20
2019-05-23T12:17:07.560Z,1.17
2019-05-23T12:19:36.924Z,1.00
2019-05-23T12:22:06.374Z,0.90
2019-05-23T12:24:36.111Z,1.00
2019-05-23T12:27:05.889Z,0.83
2019-05-23T12:29:35.553Z,0.70
2019-05-23T12:32:06.688Z,0.90
2019-05-23T12:34:36.159Z,0.77
2019-05-23T12:37:21.294Z,0.70
2019-05-23T12:39:37.201Z,0.80
2019-05-23T12:42:06.575Z,0.60
2019-05-23T12:44:35.935Z,0.70
2019-05-23T12:47:05.877Z,0.70
2019-05-23T12:49:46.575Z,0.60
2019-05-23T12:52:16.245Z,0.50
2019-05-23T12:54:46.163Z,0.90
2019-05-23T12:57:16.021Z,0.70
2019-05-23T12:59:46.016Z,0.50
2019-05-23T13:02:20.201Z,0.60
2019-05-23T13:04:50.244Z,0.40
2019-05-23T13:07:35.082Z,0.53
2019-05-23T13:09:51.275Z,0.40
2019-05-23T13:12:20.929Z,0.40
2019-05-23T13:14:53.540Z,0.40
2019-05-23T13:17:21.425Z,0.40
2019-05-23T13:19:50.714Z,0.40
2019-05-23T13:22:20.460Z,0.50
2019-05-23T13:24:53.035Z,0.50
2019-05-23T13:27:21.232Z,0.40
2019-05-23T13:29:50.632Z,0.47
2019-05-23T13:32:20.307Z,0.50
2019-05-23T13:34:49.599Z,0.40
2019-05-23T13:37:19.088Z,0.50
2019-05-23T13:39:49.043Z,0.37
2019-05-23T13:42:18.474Z,0.40
2019-05-23T13:44:48.915Z,0.50
2019-05-23T13:47:18.403Z,0.40
2019-05-23T13:49:47.781Z,0.57
2019-05-23T13:52:17.126Z,0.60
2019-05-23T13:54:46.704Z,0.50
2019-05-23T13:57:16.472Z,0.57
2019-05-23T13:59:45.809Z,0.70
2019-05-23T14:02:20.549Z,0.50
2019-05-23T14:04:50.221Z,0.70
2019-05-23T14:07:19.997Z,0.57
2019-05-23T14:09:49.271Z,0.63
2019-05-23T14:12:21.401Z,0.80
2019-05-23T14:14:50.134Z,0.90
2019-05-23T14:17:41.644Z,0.70
2019-05-23T14:20:11.427Z,0.80
2019-05-23T14:22:45.333Z,0.90
2019-05-23T14:25:15.008Z,0.90
2019-05-23T14:27:57.730Z,0.83
2019-05-23T14:30:40.158Z,0.70
2019-05-23T14:33:20.870Z,1.00
2019-05-23T14:35:51.319Z,0.90
2019-05-23T14:38:30.221Z,1.10
2019-05-23T14:40:52.297Z,0.93
2019-05-23T14:43:24.907Z,0.93
2019-05-23T14:46:03.437Z,0.90
2019-05-23T14:48:40.237Z,0.90
2019-05-23T14:51:30.555Z,1.10
2019-05-23T14:54:18.800Z,0.97
2019-05-23T14:56:48.674Z,1.20
2019-05-23T14:59:18.301Z,0.90
2019-05-23T15:01:48.448Z,1.07
2019-05-23T15:04:18.354Z,1.00
2019-05-23T15:06:47.941Z,1.10
2019-05-23T15:09:21.074Z,1.10
2019-05-23T15:11:48.647Z,1.00
2019-05-23T15:14:17.920Z,1.00
2019-05-23T15:16:47.424Z,1.20
2019-05-23T15:19:36.458Z,1.30
2019-05-23T15:21:47.785Z,1.40
2019-05-23T15:24:17.248Z,1.20
2019-05-23T15:26:46.526Z,1.20
2019-05-23T15:29:15.903Z,1.60
2019-05-23T15:32:01.100Z,1.43
2019-05-23T15:34:16.473Z,1.40
2019-05-23T15:36:45.754Z,1.60
2019-05-23T15:39:15.616Z,1.60
2019-05-23T15:41:44.900Z,1.50
2019-05-23T15:44:25.400Z,1.80
2019-05-23T15:46:45.569Z,1.50
2019-05-23T15:49:15.469Z,1.70
2019-05-23T15:52:06.903Z,1.50
2019-05-23T15:54:44.680Z,1.50
2019-05-23T15:57:30.216Z,1.57
2019-05-23T16:00:06.374Z,1.80
2019-05-23T16:02:53.420Z,1.70
2019-05-23T16:05:23.049Z,1.80
2019-05-23T16:07:52.671Z,1.60
2019-05-23T16:10:22.611Z,1.73
2019-05-23T16:12:52.023Z,1.90
2019-05-23T16:15:21.689Z,1.70
2019-05-23T16:17:51.358Z,1.70
2019-05-23T16:20:20.672Z,1.70
2019-05-23T16:22:50.144Z,1.70
2019-05-23T16:25:19.923Z,1.70
2019-05-23T16:27:49.639Z,1.83
2019-05-23T16:30:19.128Z,2.03
2019-05-23T16:32:48.769Z,1.70
2019-05-23T16:35:18.128Z,1.70
2019-05-23T16:37:47.390Z,1.60
2019-05-23T16:40:17.279Z,1.73
2019-05-23T16:42:46.554Z,1.60
2019-05-23T16:45:15.939Z,1.70
2019-05-23T16:47:45.534Z,1.77
2019-05-23T16:50:15.167Z,1.97
2019-05-23T16:52:44.467Z,1.90
2019-05-23T16:55:20.971Z,1.60
2019-05-23T16:57:54.233Z,1.80
2019-05-23T17:00:43.026Z,1.90
2019-05-23T17:03:34.416Z,1.70
2019-05-23T17:06:26.103Z,1.70
2019-05-23T17:09:04.538Z,1.60
2019-05-23T17:11:42.844Z,2.03
2019-05-23T17:14:17.940Z,1.80
2019-05-23T17:16:53.216Z,1.90
2019-05-23T17:19:35.391Z,2.20
2019-05-23T17:22:17.619Z,2.30
2019-05-23T17:24:58.906Z,2.10
2019-05-23T17:27:53.605Z,2.23
2019-05-23T17:30:51.163Z,2.47
2019-05-23T17:33:22.306Z,2.00
2019-05-23T17:35:51.836Z,2.43
2019-05-23T17:38:21.107Z,2.27
2019-05-23T17:40:51.028Z,2.50
2019-05-23T17:43:20.313Z,2.43
2019-05-23T17:45:49.781Z,2.50
2019-05-23T17:48:19.493Z,2.47
2019-05-23T17:50:48.800Z,2.50
2019-05-23T17:53:18.492Z,2.20
2019-05-23T17:55:48.188Z,2.40
2019-05-23T17:58:18.167Z,2.37
2019-05-23T18:00:48.569Z,2.40
2019-05-23T18:03:18.710Z,2.30
2019-05-23T18:05:48.100Z,2.63
2019-05-23T18:08:17.479Z,2.27
2019-05-23T18:10:47.107Z,2.57
2019-05-23T18:13:16.879Z,2.37
2019-05-23T18:15:46.601Z,2.33
2019-05-23T18:18:16.458Z,2.27
2019-05-23T18:20:46.075Z,2.70
2019-05-23T18:23:15.815Z,2.90
2019-05-23T18:25:45.391Z,2.70
2019-05-23T18:28:15.313Z,2.30
2019-05-23T18:30:55.634Z,2.70
2019-05-23T18:33:25.318Z,2.57
2019-05-23T18:35:56.219Z,2.60
2019-05-23T18:38:26.327Z,2.60
2019-05-23T18:41:03.253Z,2.77
2019-05-23T18:43:26.967Z,2.57
2019-05-23T18:45:59.998Z,2.40
2019-05-23T18:48:29.642Z,2.80
2019-05-23T18:50:59.103Z,2.70
2019-05-23T18:53:29.784Z,2.80
2019-05-23T18:55:59.078Z,2.70
2019-05-23T18:58:28.582Z,2.87
2019-05-23T19:01:08.557Z,2.90
2019-05-23T19:03:37.921Z,3.00
2019-05-23T19:06:07.186Z,2.70
2019-05-23T19:08:37.402Z,3.00
2019-05-23T19:11:20.058Z,2.83
2019-05-23T19:13:38.075Z,3.13
2019-05-23T19:16:07.657Z,2.80
2019-05-23T19:18:37.169Z,3.00
2019-05-23T19:21:07.506Z,2.67
2019-05-23T19:23:37.826Z,3.30
2019-05-23T19:26:07.232Z,3.47
2019-05-23T19:28:36.795Z,3.10
2019-05-23T19:31:06.679Z,3.30
2019-05-23T19:33:36.259Z,3.10
2019-05-23T19:36:06.311Z,3.80
2019-05-23T19:38:36.179Z,3.53
2019-05-23T19:41:05.970Z,4.27
2019-05-23T19:43:35.682Z,3.97
2019-05-23T19:46:05.355Z,3.90
2019-05-23T19:48:34.823Z,4.20
2019-05-23T19:51:04.450Z,4.23
2019-05-23T19:53:34.389Z,4.13
2019-05-23T19:56:03.862Z,4.50
2019-05-23T19:58:33.115Z,4.43
2019-05-23T20:01:03.183Z,4.40
2019-05-23T20:03:32.943Z,4.20
2019-05-23T20:06:03.069Z,4.87
2019-05-23T20:08:32.572Z,4.70
2019-05-23T20:11:01.940Z,4.53
2019-05-23T20:13:31.229Z,5.30
2019-05-23T20:16:00.756Z,4.60
2019-05-23T20:18:30.346Z,5.23
2019-05-23T20:21:00.699Z,5.20
2019-05-23T20:23:30.500Z,5.20
2019-05-23T20:25:59.941Z,4.93
2019-05-23T20:28:29.654Z,5.20
2019-05-23T20:31:00.232Z,5.20
2019-05-23T20:33:30.057Z,5.43
2019-05-23T20:36:00.331Z,4.93
2019-05-23T20:38:30.011Z,5.37
2019-05-23T20:40:59.501Z,5.40
2019-05-23T20:43:28.859Z,5.33
2019-05-23T20:48:22.570Z,5.30
2019-05-23T20:50:51.913Z,5.50
2019-05-23T20:53:21.336Z,5.33
2019-05-23T20:55:50.889Z,5.37
2019-05-23T20:58:20.338Z,6.13
2019-05-23T21:01:11.540Z,6.13
2019-05-23T21:03:40.866Z,6.60
2019-05-23T21:06:10.732Z,6.03
2019-05-23T21:08:40.519Z,6.90
2019-05-23T21:11:09.829Z,6.90
2019-05-23T21:13:39.220Z,7.00
2019-05-23T21:16:09.376Z,7.53
2019-05-23T21:18:38.694Z,7.53
2019-05-23T21:21:08.061Z,7.20
2019-05-23T21:23:37.916Z,7.80
2019-05-23T21:26:07.353Z,7.70
2019-05-23T21:28:37.157Z,7.70
2019-05-23T21:31:12.126Z,8.00
2019-05-23T21:33:41.447Z,8.33
2019-05-23T21:36:10.716Z,8.03
2019-05-23T21:38:40.488Z,8.97
2019-05-23T21:41:09.876Z,8.50
2019-05-23T21:43:39.180Z,9.90
2019-05-23T21:46:08.803Z,9.53
2019-05-23T21:48:38.129Z,9.97
2019-05-23T21:51:07.794Z,10.70
2019-05-23T21:53:37.400Z,10.83
2019-05-23T21:56:07.074Z,10.27
2019-05-23T21:58:36.811Z,10.80
2019-05-23T22:01:31.796Z,11.27
2019-05-23T22:04:23.220Z,11.63
2019-05-23T22:06:57.913Z,11.50
2019-05-23T22:09:27.467Z,11.60
2019-05-23T22:11:57.685Z,11.93
2019-05-23T22:14:27.407Z,11.00
2019-05-23T22:16:57.055Z,12.10
2019-05-23T22:19:27.351Z,10.83
2019-05-23T22:21:56.965Z,11.20
2019-05-23T22:24:26.268Z,11.30
2019-05-23T22:26:55.701Z,11.27
2019-05-23T22:29:25.779Z,12.17
2019-05-23T22:31:56.594Z,11.40
2019-05-23T22:34:32.998Z,11.47
2019-05-23T22:37:02.903Z,11.63
2019-05-23T22:39:32.386Z,11.27
2019-05-23T22:42:01.972Z,10.40
2019-05-23T22:44:31.486Z,11.13
2019-05-23T22:47:00.828Z,10.87
2019-05-23T22:49:31.032Z,10.93
2019-05-23T22:52:00.348Z,11.43
2019-05-23T22:54:29.853Z,11.17
2019-05-23T22:56:59.565Z,10.40
2019-05-23T22:59:29.083Z,10.50
2019-05-23T23:01:58.363Z,10.13
2019-05-23T23:04:28.227Z,9.03
2019-05-23T23:06:57.721Z,8.73
2019-05-23T23:09:27.234Z,8.07
2019-05-23T23:11:56.999Z,8.83
2019-05-23T23:14:26.314Z,8.20
2019-05-23T23:16:55.665Z,8.33
2019-05-23T23:19:25.031Z,8.70
2019-05-23T23:21:54.360Z,9.33
2019-05-23T23:24:23.648Z,9.40
2019-05-23T23:26:53.343Z,10.07
2019-05-23T23:29:22.709Z,10.83
2019-05-23T23:31:52.079Z,12.00
2019-05-23T23:34:21.744Z,11.60
2019-05-23T23:36:51.033Z,12.53
2019-05-23T23:39:20.410Z,12.27
2019-05-23T23:41:50.149Z,12.03
2019-05-23T23:44:20.470Z,11.80
2019-05-23T23:47:07.977Z,12.33
2019-05-23T23:49:54.859Z,12.63
2019-05-23T23:52:42.202Z,11.43
2019-05-23T23:55:29.246Z,11.60
2019-05-23T23:58:00.605Z,11.67
